createdAt,value
2023-06-01T00:00:10.475Z,5.47
2023-06-01T00:02:39.602Z,3.37
2023-06-01T00:05:07.154Z,3.73
2023-06-01T00:07:34.356Z,5.17
2023-06-01T00:10:01.781Z,8.33
2023-06-01T00:12:28.919Z,3.00
2023-06-01T00:14:56.242Z,4.07
2023-06-01T00:17:24.638Z,4.23
2023-06-01T00:19:54.230Z,5.50
2023-06-01T00:22:21.961Z,4.33
2023-06-01T00:24:49.109Z,3.43
2023-06-01T00:27:16.179Z,3.90
2023-06-01T00:29:43.236Z,3.83
2023-06-01T00:32:10.414Z,4.10
2023-06-01T00:34:37.564Z,4.03
2023-06-01T00:37:04.855Z,3.83
2023-06-01T00:39:31.925Z,4.07
2023-06-01T00:41:59.046Z,4.07
2023-06-01T00:44:26.221Z,3.70
2023-06-01T00:46:54.065Z,3.90
2023-06-01T00:49:21.440Z,3.53
2023-06-01T00:51:48.844Z,4.10
2023-06-01T00:54:16.147Z,3.80
2023-06-01T00:56:43.738Z,3.80
2023-06-01T00:59:11.094Z,3.33
2023-06-01T01:01:38.250Z,3.83
2023-06-01T01:04:05.670Z,3.53
2023-06-01T01:07:05.602Z,4.13
2023-06-01T01:09:59.969Z,3.40
2023-06-01T01:13:07.279Z,3.90
2023-06-01T01:15:45.097Z,3.60
2023-06-01T01:18:55.409Z,3.77
2023-06-01T01:21:31.103Z,3.60
2023-06-01T01:24:36.154Z,4.00
2023-06-01T01:27:19.752Z,4.20
2023-06-01T01:29:47.803Z,3.70
2023-06-01T01:32:15.113Z,4.10
2023-06-01T01:34:45.732Z,3.70
2023-06-01T01:37:12.930Z,3.93
2023-06-01T01:39:40.084Z,3.80
2023-06-01T01:42:08.321Z,3.50
2023-06-01T01:44:35.741Z,3.83
2023-06-01T01:47:17.368Z,3.97
2023-06-01T01:49:47.634Z,4.27
2023-06-01T01:52:22.524Z,3.83
2023-06-01T01:54:51.795Z,3.70
2023-06-01T01:57:20.065Z,4.40
2023-06-01T01:59:49.812Z,4.30
2023-06-01T02:02:17.240Z,4.07
2023-06-01T02:04:47.267Z,4.30
2023-06-01T02:07:14.964Z,4.30
2023-06-01T02:09:42.577Z,3.80
2023-06-01T02:12:11.625Z,3.97
2023-06-01T02:14:38.801Z,4.03
2023-06-01T02:17:06.848Z,4.17
2023-06-01T02:19:34.225Z,4.03
2023-06-01T02:22:01.639Z,3.80
2023-06-01T02:24:29.113Z,4.13
2023-06-01T02:26:56.929Z,4.07
2023-06-01T02:29:24.801Z,4.20
2023-06-01T02:31:52.494Z,4.27
2023-06-01T02:34:21.236Z,4.50
2023-06-01T02:36:49.690Z,4.23
2023-06-01T02:39:18.559Z,4.07
2023-06-01T02:41:46.229Z,4.27
2023-06-01T02:44:13.692Z,4.70
2023-06-01T02:46:40.991Z,3.77
2023-06-01T02:49:08.315Z,3.60
2023-06-01T02:51:35.459Z,4.03
2023-06-01T02:54:16.064Z,3.83
2023-06-01T02:56:43.196Z,4.80
2023-06-01T02:59:17.901Z,4.60
2023-06-01T03:01:50.447Z,4.90
2023-06-01T03:04:18.853Z,4.50
2023-06-01T03:06:46.743Z,4.70
2023-06-01T03:09:32.609Z,4.63
2023-06-01T03:12:19.878Z,4.33
2023-06-01T03:14:47.024Z,4.83
2023-06-01T03:17:14.156Z,4.40
2023-06-01T03:19:41.710Z,4.43
2023-06-01T03:22:16.970Z,4.97
2023-06-01T03:24:45.331Z,4.67
2023-06-01T03:27:12.679Z,4.70
2023-06-01T03:29:40.500Z,4.20
2023-06-01T03:32:08.799Z,4.70
2023-06-01T03:34:37.710Z,4.97
2023-06-01T03:37:05.448Z,4.37
2023-06-01T03:39:36.904Z,5.00
2023-06-01T03:42:08.411Z,5.03
2023-06-01T03:44:36.650Z,5.20
2023-06-01T03:47:04.285Z,5.17
2023-06-01T03:49:31.816Z,5.33
2023-06-01T03:51:59.111Z,5.77
2023-06-01T03:54:26.432Z,6.17
2023-06-01T03:56:53.534Z,5.87
2023-06-01T03:59:20.701Z,3.97
2023-06-01T04:01:49.523Z,5.23
2023-06-01T04:04:19.053Z,5.40
2023-06-01T04:06:46.577Z,5.37
2023-06-01T04:09:15.897Z,4.90
2023-06-01T04:11:44.446Z,5.37
2023-06-01T04:14:11.817Z,4.93
2023-06-01T04:16:39.326Z,4.93
2023-06-01T04:19:06.737Z,4.90
2023-06-01T04:21:34.031Z,4.27
2023-06-01T04:24:01.626Z,4.90
2023-06-01T04:26:28.772Z,4.90
2023-06-01T04:28:58.093Z,4.67
2023-06-01T04:31:25.893Z,4.70
2023-06-01T04:33:57.452Z,4.93
2023-06-01T04:36:26.564Z,4.70
2023-06-01T04:38:58.397Z,5.03
2023-06-01T04:41:28.410Z,5.43
2023-06-01T04:43:55.520Z,5.50
2023-06-01T04:46:27.631Z,5.40
2023-06-01T04:49:02.243Z,5.10
2023-06-01T04:51:32.235Z,5.03
2023-06-01T04:54:00.697Z,4.97
2023-06-01T04:56:30.782Z,5.03
2023-06-01T04:58:58.822Z,5.30
2023-06-01T05:01:31.002Z,5.10
2023-06-01T05:03:59.521Z,5.27
2023-06-01T05:06:27.583Z,5.50
2023-06-01T05:08:55.124Z,7.37
2023-06-01T05:11:23.149Z,7.43
2023-06-01T05:13:53.774Z,6.37
2023-06-01T05:16:21.773Z,6.90
2023-06-01T05:18:50.501Z,7.00
2023-06-01T05:21:17.739Z,6.03
2023-06-01T05:23:44.956Z,6.30
2023-06-01T05:26:12.838Z,6.30
2023-06-01T05:28:39.988Z,6.37
2023-06-01T05:31:10.399Z,5.73
2023-06-01T05:33:43.404Z,6.47
2023-06-01T05:36:11.318Z,5.80
2023-06-01T05:38:40.000Z,6.60
2023-06-01T05:41:07.679Z,6.03
2023-06-01T05:43:38.046Z,6.83
2023-06-01T05:46:07.840Z,6.30
2023-06-01T05:48:35.782Z,6.10
2023-06-01T05:51:04.488Z,6.43
2023-06-01T05:53:32.097Z,5.57
2023-06-01T05:55:59.257Z,6.37
2023-06-01T05:58:26.496Z,5.97
2023-06-01T06:00:53.964Z,6.13
2023-06-01T06:03:22.489Z,5.95
2023-06-01T06:05:50.493Z,6.10
2023-06-01T06:08:17.614Z,6.40
2023-06-01T06:10:44.688Z,6.23
2023-06-01T06:13:12.125Z,6.33
2023-06-01T06:15:39.264Z,5.50
2023-06-01T06:18:06.933Z,5.67
2023-06-01T06:20:34.139Z,5.73
2023-06-01T06:23:01.260Z,5.77
2023-06-01T06:25:28.350Z,6.33
2023-06-01T06:27:55.896Z,6.07
2023-06-01T06:30:23.299Z,5.90
2023-06-01T06:32:50.789Z,5.87
2023-06-01T06:35:17.914Z,6.03
2023-06-01T06:37:45.122Z,6.57
2023-06-01T06:40:12.987Z,5.97
2023-06-01T06:42:40.023Z,5.90
2023-06-01T06:45:07.942Z,5.97
2023-06-01T06:47:35.085Z,5.30
2023-06-01T06:50:02.287Z,6.10
2023-06-01T06:52:29.337Z,5.53
2023-06-01T06:54:56.661Z,5.30
2023-06-01T06:57:23.772Z,5.73
2023-06-01T06:59:50.808Z,5.50
2023-06-01T07:02:17.918Z,6.53
2023-06-01T07:04:44.985Z,5.60
2023-06-01T07:07:12.282Z,5.73
2023-06-01T07:09:39.439Z,5.47
2023-06-01T07:12:07.398Z,5.67
2023-06-01T07:14:34.735Z,5.30
2023-06-01T07:17:01.910Z,4.80
2023-06-01T07:19:34.139Z,5.83
2023-06-01T07:22:02.934Z,5.97
2023-06-01T07:24:30.103Z,5.87
2023-06-01T07:26:58.650Z,5.70
2023-06-01T07:29:26.223Z,5.20
2023-06-01T07:31:54.065Z,5.70
2023-06-01T07:34:21.626Z,5.70
2023-06-01T07:36:50.391Z,6.57
2023-06-01T07:39:18.516Z,6.50
2023-06-01T07:41:51.575Z,6.40
2023-06-01T07:44:19.528Z,5.43
2023-06-01T07:46:46.981Z,5.67
2023-06-01T07:49:15.303Z,5.63
2023-06-01T07:51:43.559Z,6.33
2023-06-01T07:54:11.331Z,5.30
2023-06-01T07:56:38.452Z,5.50
2023-06-01T07:59:06.224Z,5.93
2023-06-01T08:01:34.071Z,5.87
2023-06-01T08:04:02.875Z,5.67
2023-06-01T08:06:36.603Z,5.37
2023-06-01T08:09:04.209Z,5.70
2023-06-01T08:11:31.641Z,6.00
2023-06-01T08:14:01.187Z,6.20
2023-06-01T08:16:28.362Z,5.30
2023-06-01T08:18:57.008Z,6.07
2023-06-01T08:21:27.521Z,5.60
2023-06-01T08:23:57.664Z,6.17
2023-06-01T08:26:26.724Z,5.93
2023-06-01T08:28:54.138Z,6.20
2023-06-01T08:31:23.014Z,6.13
2023-06-01T08:33:54.368Z,5.93
2023-06-01T08:36:22.315Z,6.23
2023-06-01T08:38:52.156Z,5.97
2023-06-01T08:41:27.148Z,6.80
2023-06-01T08:44:03.628Z,6.17
2023-06-01T08:46:33.410Z,5.90
2023-06-01T08:49:00.974Z,6.20
2023-06-01T08:51:30.073Z,6.13
2023-06-01T08:54:01.845Z,5.17
2023-06-01T08:56:30.143Z,5.50
2023-06-01T08:58:58.255Z,5.47
2023-06-01T09:01:26.310Z,5.93
2023-06-01T09:03:53.689Z,6.00
2023-06-01T09:06:21.086Z,5.90
2023-06-01T09:08:48.439Z,6.37
2023-06-01T09:11:15.543Z,5.47
2023-06-01T09:13:42.857Z,5.93
2023-06-01T09:16:11.135Z,6.17
2023-06-01T09:18:52.689Z,6.20
2023-06-01T09:21:19.912Z,6.83
2023-06-01T09:23:48.740Z,5.73
2023-06-01T09:26:16.716Z,6.30
2023-06-01T09:28:57.611Z,5.53
2023-06-01T09:31:57.259Z,5.60
2023-06-01T09:34:24.552Z,5.27
2023-06-01T09:36:56.331Z,5.53
2023-06-01T09:39:26.061Z,5.50
2023-06-01T09:41:57.999Z,6.00
2023-06-01T09:44:33.122Z,5.77
2023-06-01T09:47:05.372Z,5.87
2023-06-01T09:49:45.719Z,5.27
2023-06-01T09:52:18.335Z,6.13
2023-06-01T09:54:50.302Z,5.43
2023-06-01T09:57:30.314Z,6.20
2023-06-01T09:59:57.649Z,5.87
2023-06-01T10:02:25.933Z,6.43
2023-06-01T10:04:59.978Z,6.23
2023-06-01T10:07:29.679Z,5.40
2023-06-01T10:10:03.755Z,5.33
2023-06-01T10:12:34.338Z,5.70
2023-06-01T10:15:16.077Z,5.60
2023-06-01T10:17:50.053Z,6.80
2023-06-01T10:20:17.450Z,5.90
2023-06-01T10:22:45.619Z,6.10
2023-06-01T10:25:17.075Z,5.47
2023-06-01T10:27:56.551Z,5.93
2023-06-01T10:30:23.751Z,6.50
2023-06-01T10:32:51.130Z,5.73
2023-06-01T10:35:53.427Z,5.37
2023-06-01T10:38:23.989Z,5.80
2023-06-01T10:40:51.920Z,6.30
2023-06-01T10:43:41.207Z,5.47
2023-06-01T10:46:44.118Z,6.03
2023-06-01T10:49:12.546Z,5.30
2023-06-01T10:51:39.654Z,5.40
2023-06-01T10:54:27.308Z,5.57
2023-06-01T10:57:22.983Z,5.63
2023-06-01T11:00:20.590Z,5.53
2023-06-01T11:03:07.234Z,6.60
2023-06-01T11:05:52.876Z,5.40
2023-06-01T11:09:01.252Z,5.83
2023-06-01T11:12:06.274Z,6.47
2023-06-01T11:14:34.634Z,5.73
2023-06-01T11:17:30.061Z,5.30
2023-06-01T11:20:02.848Z,6.00
2023-06-01T11:22:38.088Z,5.10
2023-06-01T11:25:09.548Z,5.03
2023-06-01T11:27:37.901Z,5.03
2023-06-01T11:30:05.829Z,5.33
2023-06-01T11:32:34.477Z,4.97
2023-06-01T11:35:16.401Z,4.90
2023-06-01T11:37:43.528Z,4.80
2023-06-01T11:40:12.036Z,6.43
2023-06-01T11:42:39.140Z,5.47
2023-06-01T11:45:07.123Z,5.50
2023-06-01T11:47:34.676Z,4.90
2023-06-01T11:50:01.824Z,4.93
2023-06-01T11:52:30.551Z,4.60
2023-06-01T11:55:03.930Z,5.50
2023-06-01T11:57:30.998Z,4.97
2023-06-01T12:00:00.445Z,5.00
2023-06-01T12:02:30.904Z,5.20
2023-06-01T12:05:14.888Z,4.83
2023-06-01T12:07:49.629Z,4.80
2023-06-01T12:10:21.365Z,4.90
2023-06-01T12:12:49.692Z,5.30
2023-06-01T12:15:18.329Z,5.40
2023-06-01T12:17:59.169Z,5.23
2023-06-01T12:20:32.390Z,4.40
2023-06-01T12:23:02.108Z,5.13
2023-06-01T12:25:29.343Z,5.90
2023-06-01T12:28:23.239Z,4.73
2023-06-01T12:30:50.727Z,5.20
2023-06-01T12:33:37.321Z,5.27
2023-06-01T12:36:07.453Z,5.80
2023-06-01T12:38:53.481Z,5.50
2023-06-01T12:41:22.537Z,5.53
2023-06-01T12:43:50.753Z,5.23
2023-06-01T12:46:29.644Z,5.30
2023-06-01T12:49:14.019Z,5.00
2023-06-01T12:51:41.294Z,4.77
2023-06-01T12:54:08.631Z,5.50
2023-06-01T12:56:36.652Z,4.83
2023-06-01T12:59:04.583Z,5.10
2023-06-01T13:01:31.659Z,5.13
2023-06-01T13:03:59.150Z,5.60
2023-06-01T13:06:26.535Z,5.50
2023-06-01T13:08:53.666Z,5.07
2023-06-01T13:11:20.844Z,5.17
2023-06-01T13:13:48.766Z,5.13
2023-06-01T13:16:16.701Z,5.57
2023-06-01T13:18:45.814Z,4.73
2023-06-01T13:21:14.096Z,5.40
2023-06-01T13:23:41.142Z,5.53
2023-06-01T13:26:09.187Z,5.43
2023-06-01T13:28:36.868Z,4.53
2023-06-01T13:31:04.745Z,4.70
2023-06-01T13:33:33.540Z,5.30
2023-06-01T13:36:00.801Z,5.50
2023-06-01T13:38:28.029Z,5.53
2023-06-01T13:40:55.501Z,5.37
2023-06-01T13:43:22.747Z,4.50
2023-06-01T13:45:49.886Z,5.60
2023-06-01T13:48:19.595Z,5.57
2023-06-01T13:50:47.798Z,5.40
2023-06-01T13:53:14.898Z,5.17
2023-06-01T13:55:42.276Z,4.73
2023-06-01T13:58:09.435Z,4.63
2023-06-01T14:00:37.165Z,4.97
2023-06-01T14:03:04.808Z,5.10
2023-06-01T14:05:45.706Z,6.00
2023-06-01T14:08:19.076Z,5.43
2023-06-01T14:10:46.135Z,4.83
2023-06-01T14:13:13.238Z,4.53
2023-06-01T14:15:40.366Z,4.37
2023-06-01T14:18:07.632Z,7.47
2023-06-01T14:20:35.838Z,4.73
2023-06-01T14:23:04.265Z,5.30
2023-06-01T14:25:31.397Z,4.90
2023-06-01T14:27:58.482Z,4.88
2023-06-01T14:30:27.618Z,5.00
2023-06-01T14:32:55.331Z,4.73
2023-06-01T14:35:22.415Z,3.90
2023-06-01T14:37:50.424Z,4.65
2023-06-01T14:40:18.468Z,4.70
2023-06-01T14:42:46.348Z,5.23
2023-06-01T14:45:13.785Z,5.20
2023-06-01T14:47:42.798Z,5.00
2023-06-01T14:50:11.026Z,4.37
2023-06-01T14:52:38.186Z,4.30
2023-06-01T14:55:05.994Z,3.92
2023-06-01T14:57:33.267Z,4.82
2023-06-01T15:00:05.172Z,4.30
2023-06-01T15:02:34.388Z,5.00
2023-06-01T15:05:15.533Z,5.10
2023-06-01T15:10:54.316Z,4.40
2023-06-01T15:13:34.647Z,4.90
2023-06-01T15:18:57.235Z,4.95
2023-06-01T15:21:24.368Z,4.38
2023-06-01T15:23:51.457Z,4.72
2023-06-01T15:26:18.878Z,5.15
2023-06-01T15:28:45.936Z,4.47
2023-06-01T15:31:13.120Z,5.07
2023-06-01T15:33:40.389Z,5.17
2023-06-01T16:04:43.767Z,4.80
2023-06-01T16:07:11.089Z,5.33
2023-06-01T16:09:38.383Z,4.60
2023-06-01T16:12:06.502Z,4.93
2023-06-01T16:14:33.854Z,4.97
2023-06-01T16:17:03.569Z,4.60
2023-06-01T16:19:31.010Z,4.73
2023-06-01T16:21:59.261Z,4.60
2023-06-01T16:24:26.449Z,4.90
2023-06-01T16:26:53.495Z,5.30
2023-06-01T16:29:20.815Z,4.80
2023-06-01T16:31:49.337Z,4.77
2023-06-01T16:34:16.792Z,4.37
2023-06-01T16:36:43.928Z,5.00
2023-06-01T16:39:11.143Z,5.23
2023-06-01T16:41:38.188Z,5.13
2023-06-01T16:44:05.391Z,4.90
2023-06-01T16:46:32.519Z,5.30
2023-06-01T16:48:59.693Z,5.43
2023-06-01T16:51:28.785Z,5.20
2023-06-01T16:53:57.002Z,4.77
2023-06-01T16:56:25.357Z,4.70
2023-06-01T16:58:52.450Z,4.87
2023-06-01T17:01:19.685Z,4.93
2023-06-01T17:03:46.908Z,4.87
2023-06-01T17:06:14.509Z,4.90
2023-06-01T17:08:41.864Z,5.07
2023-06-01T17:11:09.139Z,5.37
2023-06-01T17:13:36.961Z,5.13
2023-06-01T17:16:07.933Z,5.00
2023-06-01T17:18:36.568Z,5.00
2023-06-01T17:21:04.249Z,4.70
2023-06-01T17:23:31.657Z,4.90
2023-06-01T17:25:58.746Z,4.40
2023-06-01T17:28:26.217Z,4.77
2023-06-01T17:30:53.422Z,4.77
2023-06-01T17:33:20.865Z,4.93
2023-06-01T17:35:48.260Z,4.33
2023-06-01T17:38:15.494Z,4.97
2023-06-01T17:40:42.959Z,4.80
2023-06-01T17:43:10.147Z,4.60
2023-06-01T17:45:37.237Z,4.57
2023-06-01T17:48:05.076Z,4.90
2023-06-01T17:50:32.474Z,4.63
2023-06-01T17:52:59.664Z,4.50
2023-06-01T17:55:27.197Z,4.93
2023-06-01T17:57:54.342Z,4.80
2023-06-01T18:00:21.520Z,4.93
2023-06-01T18:02:49.479Z,5.00
2023-06-01T18:05:17.176Z,5.23
2023-06-01T18:07:44.586Z,5.27
2023-06-01T18:10:11.800Z,5.10
2023-06-01T18:12:38.917Z,5.07
2023-06-01T18:15:06.895Z,5.30
2023-06-01T18:17:35.159Z,5.37
2023-06-01T18:20:02.313Z,5.40
2023-06-01T18:22:29.672Z,5.10
2023-06-01T18:24:57.040Z,5.40
2023-06-01T18:27:24.511Z,5.00
2023-06-01T18:29:51.704Z,4.90
2023-06-01T18:32:19.087Z,5.17
2023-06-01T18:34:46.402Z,5.53
2023-06-01T18:37:13.494Z,5.63
2023-06-01T18:39:40.813Z,4.90
2023-06-01T18:42:08.641Z,5.23
2023-06-01T18:44:35.724Z,4.73
2023-06-01T18:47:03.160Z,4.97
2023-06-01T18:49:30.298Z,4.67
2023-06-01T18:51:57.492Z,5.60
2023-06-01T18:54:25.192Z,5.13
2023-06-01T18:56:52.477Z,4.80
2023-06-01T18:59:19.679Z,4.93
2023-06-01T19:01:46.814Z,5.30
2023-06-01T19:04:14.394Z,4.80
2023-06-01T19:06:42.720Z,5.33
2023-06-01T19:09:12.434Z,5.27
2023-06-01T19:11:41.538Z,4.90
2023-06-01T19:14:14.001Z,4.50
2023-06-01T19:16:41.677Z,4.80
2023-06-01T19:19:10.041Z,4.43
2023-06-01T19:21:37.174Z,4.67
2023-06-01T19:24:13.576Z,5.00
2023-06-01T19:26:41.482Z,4.67
2023-06-01T19:29:11.283Z,4.10
2023-06-01T19:31:41.459Z,4.73
2023-06-01T19:34:09.822Z,4.57
2023-06-01T19:36:56.769Z,4.53
2023-06-01T19:39:40.873Z,4.90
2023-06-01T19:42:40.720Z,4.60
2023-06-01T19:45:08.616Z,4.97
2023-06-01T19:47:50.026Z,5.33
2023-06-01T19:50:52.589Z,4.77
2023-06-01T19:53:19.654Z,4.60
2023-06-01T19:55:47.179Z,4.60
2023-06-01T19:58:14.300Z,4.40
2023-06-01T20:00:41.501Z,4.77
2023-06-01T20:03:15.010Z,4.63
2023-06-01T20:05:42.198Z,5.10
2023-06-01T20:08:14.916Z,4.77
2023-06-01T20:10:42.316Z,5.40
2023-06-01T20:13:09.712Z,5.13
2023-06-01T20:15:42.084Z,4.67
2023-06-01T20:18:10.109Z,4.47
2023-06-01T20:20:42.710Z,4.47
2023-06-01T20:23:16.912Z,5.63
2023-06-01T20:25:45.764Z,4.77
2023-06-01T20:28:15.174Z,4.87
2023-06-01T20:31:05.846Z,5.20
2023-06-01T20:33:33.969Z,4.70
2023-06-01T20:36:08.971Z,5.40
2023-06-01T20:38:41.933Z,4.93
2023-06-01T20:41:17.304Z,4.80
2023-06-01T20:43:44.501Z,6.07
2023-06-01T20:46:13.193Z,5.30
2023-06-01T20:48:54.409Z,5.20
2023-06-01T20:51:30.052Z,5.20
2023-06-01T20:54:02.674Z,5.17
2023-06-01T20:56:38.955Z,5.10
2023-06-01T20:59:31.296Z,5.13
2023-06-01T21:02:07.390Z,4.87
2023-06-01T21:04:37.950Z,5.10
2023-06-01T21:07:06.343Z,5.20
2023-06-01T21:09:34.085Z,5.20
2023-06-01T21:12:03.178Z,5.10
2023-06-01T21:14:32.134Z,4.70
2023-06-01T21:16:59.630Z,4.87
2023-06-01T21:19:26.920Z,5.30
2023-06-01T21:21:54.124Z,5.37
2023-06-01T21:24:21.297Z,5.30
2023-06-01T21:26:48.417Z,4.57
2023-06-01T21:29:15.539Z,4.80
2023-06-01T21:31:42.751Z,5.50
2023-06-01T21:34:09.874Z,4.90
2023-06-01T21:36:37.487Z,5.07
2023-06-01T21:39:04.596Z,5.37
2023-06-01T21:41:31.632Z,5.10
2023-06-01T21:43:58.735Z,5.00
2023-06-01T21:46:25.872Z,5.33
2023-06-01T21:48:53.060Z,5.27
2023-06-01T21:51:20.186Z,5.37
2023-06-01T21:53:47.230Z,5.00
2023-06-01T21:56:14.630Z,5.50
2023-06-01T21:58:42.982Z,5.93
2023-06-01T22:01:10.137Z,4.83
2023-06-01T22:03:37.411Z,5.37
2023-06-01T22:06:05.810Z,5.23
2023-06-01T22:08:33.334Z,5.67
2023-06-01T22:11:00.730Z,5.47
2023-06-01T22:13:27.987Z,5.40
2023-06-01T22:15:55.265Z,4.90
2023-06-01T22:18:22.359Z,5.27
2023-06-01T22:20:49.519Z,5.33
2023-06-01T22:23:16.610Z,5.17
2023-06-01T22:25:43.816Z,6.00
2023-06-01T22:28:11.324Z,5.60
2023-06-01T22:30:39.300Z,5.37
2023-06-01T22:33:06.808Z,5.53
2023-06-01T22:35:34.111Z,5.57
2023-06-01T22:38:01.246Z,5.40
2023-06-01T22:40:28.345Z,5.47
2023-06-01T22:42:55.464Z,5.73
2023-06-01T22:45:22.724Z,5.63
2023-06-01T22:47:50.240Z,6.10
2023-06-01T22:50:20.389Z,5.13
2023-06-01T22:52:49.300Z,5.60
2023-06-01T22:55:17.027Z,5.53
2023-06-01T22:57:44.426Z,5.80
2023-06-01T23:00:12.557Z,5.50
2023-06-01T23:02:39.959Z,6.10
2023-06-01T23:05:07.756Z,5.70
2023-06-01T23:07:37.731Z,6.00
2023-06-01T23:10:05.895Z,5.37
2023-06-01T23:12:36.101Z,5.53
2023-06-01T23:15:04.374Z,5.77
2023-06-01T23:17:34.095Z,5.60
2023-06-01T23:20:05.669Z,5.57
2023-06-01T23:22:37.984Z,5.77
2023-06-01T23:25:06.221Z,6.30
2023-06-01T23:27:33.447Z,5.53
2023-06-01T23:30:00.943Z,5.73
2023-06-01T23:32:28.264Z,5.93
2023-06-01T23:34:55.537Z,5.67
2023-06-01T23:37:29.229Z,5.87
2023-06-01T23:39:57.620Z,5.77
2023-06-01T23:42:24.919Z,6.00
2023-06-01T23:44:52.067Z,5.23
2023-06-01T23:47:22.011Z,5.53
2023-06-01T23:49:49.343Z,5.90
2023-06-01T23:52:16.561Z,5.77
2023-06-01T23:54:43.891Z,5.50
2023-06-01T23:57:11.027Z,5.20
2023-06-01T23:59:38.170Z,5.50
